Time;durP1;ratioP1;P1;durP2;ratioP2;P2;SDS_P1;SDS_P2;PMS_P1;PMS_P2;Temp;Humidity;BMP_temperature;BMP_pressure;BME280_temperature;BME280_humidity;BME280_pressure;Samples;Min_cycle;Max_cycle;Signal;HPM_P1;HPM_P2
2022/04/10 00:01:22;;;;;;;14.83;10.33;;;;;;;;;;759215;183;915861;-64
2022/04/10 00:03:47;;;;;;;14.03;10.07;;;;;;;;;;757572;184;919444;-64
2022/04/10 00:06:14;;;;;;;13.15;9.60;;;;;;;;;;756060;184;919260;-63
2022/04/10 00:08:39;;;;;;;12.30;9.03;;;;;;;;;;758977;184;919253;-65
2022/04/10 00:11:05;;;;;;;15.80;10.57;;;;;;;;;;749156;183;918581;-64
2022/04/10 00:13:31;;;;;;;14.53;10.47;;;;;;;;;;755316;184;918519;-64
2022/04/10 00:15:57;;;;;;;13.00;10.23;;;;;;;;;;763241;184;919495;-63
2022/04/10 00:18:23;;;;;;;13.35;10.70;;;;;;;;;;759413;184;918562;-63
2022/04/10 00:20:49;;;;;;;13.13;9.60;;;;;;;;;;761064;183;919236;-63
2022/04/10 00:23:14;;;;;;;13.40;8.60;;;;;;;;;;766759;182;918882;-64
2022/04/10 00:25:40;;;;;;;11.13;8.73;;;;;;;;;;759506;182;919355;-64
2022/04/10 00:28:08;;;;;;;12.20;7.90;;;;;;;;;;759368;184;922121;-64
2022/04/10 00:30:32;;;;;;;10.83;8.37;;;;;;;;;;758588;184;919175;-64
2022/04/10 00:32:58;;;;;;;12.40;9.17;;;;;;;;;;750548;184;937499;-63
2022/04/10 00:35:24;;;;;;;12.60;9.07;;;;;;;;;;753314;184;919223;-64
2022/04/10 00:37:50;;;;;;;11.65;7.53;;;;;;;;;;750063;184;919602;-63
2022/04/10 00:40:16;;;;;;;11.07;7.80;;;;;;;;;;755258;184;918971;-64
2022/04/10 00:42:42;;;;;;;11.03;7.53;;;;;;;;;;762987;183;918429;-64
2022/04/10 00:45:07;;;;;;;11.25;7.37;;;;;;;;;;760053;184;918858;-63
2022/04/10 00:47:33;;;;;;;11.63;8.20;;;;;;;;;;762269;184;918735;-64
2022/04/10 00:49:59;;;;;;;11.27;8.20;;;;;;;;;;750393;183;918676;-64
2022/04/10 00:52:25;;;;;;;10.17;8.00;;;;;;;;;;758777;184;918976;-64
2022/04/10 00:54:51;;;;;;;9.33;7.17;;;;;;;;;;760785;184;920007;-63
2022/04/10 00:57:17;;;;;;;14.43;9.60;;;;;;;;;;755439;184;920024;-64
2022/04/10 00:59:43;;;;;;;11.07;8.73;;;;;;;;;;752838;183;918901;-64
2022/04/10 01:02:09;;;;;;;10.23;8.83;;;;;;;;;;755787;184;918794;-64
2022/04/10 01:04:36;;;;;;;12.50;8.60;;;;;;;;;;762960;183;919113;-64
2022/04/10 01:07:00;;;;;;;10.00;7.90;;;;;;;;;;756999;183;1021690;-64
2022/04/10 01:09:27;;;;;;;13.90;9.63;;;;;;;;;;762037;183;927131;-64
2022/04/10 01:11:53;;;;;;;11.23;7.78;;;;;;;;;;765744;183;918842;-64
2022/04/10 01:14:19;;;;;;;11.60;9.20;;;;;;;;;;753314;183;919598;-64
2022/04/10 01:16:46;;;;;;;16.30;9.27;;;;;;;;;;751829;184;920603;-63
2022/04/10 01:19:11;;;;;;;11.43;8.63;;;;;;;;;;756254;184;918602;-63
2022/04/10 01:21:38;;;;;;;13.00;8.23;;;;;;;;;;760278;183;920706;-64
2022/04/10 01:24:04;;;;;;;10.50;8.17;;;;;;;;;;754602;183;919090;-64
2022/04/10 01:26:31;;;;;;;11.00;8.30;;;;;;;;;;754105;184;929804;-64
2022/04/10 01:29:00;;;;;;;10.30;8.30;;;;;;;;;;760365;183;918017;-64
2022/04/10 01:31:26;;;;;;;12.23;8.23;;;;;;;;;;756296;183;918891;-64
2022/04/10 01:33:52;;;;;;;14.43;10.03;;;;;;;;;;756896;183;918137;-64
2022/04/10 01:36:18;;;;;;;10.10;8.43;;;;;;;;;;767487;182;919263;-65
2022/04/10 01:38:43;;;;;;;12.43;8.50;;;;;;;;;;759907;182;919073;-64
2022/04/10 01:41:12;;;;;;;12.25;10.13;;;;;;;;;;749574;184;918128;-64
2022/04/10 01:43:38;;;;;;;14.73;10.70;;;;;;;;;;751665;184;917945;-66
2022/04/10 01:46:04;;;;;;;15.93;10.00;;;;;;;;;;761576;184;932307;-66
2022/04/10 01:48:30;;;;;;;14.10;10.30;;;;;;;;;;762529;183;923462;-65
2022/04/10 01:50:55;;;;;;;16.65;10.50;;;;;;;;;;749664;184;919350;-66
2022/04/10 01:53:21;;;;;;;12.80;10.40;;;;;;;;;;756366;186;918918;-65
2022/04/10 01:55:47;;;;;;;14.50;10.40;;;;;;;;;;744723;187;921390;-65
2022/04/10 01:58:13;;;;;;;13.97;10.57;;;;;;;;;;747488;184;1022414;-66
2022/04/10 02:00:39;;;;;;;14.67;10.10;;;;;;;;;;748228;184;918833;-66
2022/04/10 02:03:05;;;;;;;12.73;9.50;;;;;;;;;;760225;183;919444;-65
2022/04/10 02:05:31;;;;;;;12.05;10.30;;;;;;;;;;758737;184;919188;-66
2022/04/10 02:07:57;;;;;;;17.93;10.07;;;;;;;;;;754437;184;919355;-66
2022/04/10 02:10:23;;;;;;;14.70;10.37;;;;;;;;;;748252;188;918316;-65
2022/04/10 02:12:49;;;;;;;14.20;11.00;;;;;;;;;;759732;183;919381;-65
2022/04/10 02:15:15;;;;;;;15.60;11.57;;;;;;;;;;760437;183;919039;-65
2022/04/10 02:17:40;;;;;;;13.33;10.70;;;;;;;;;;764734;184;918742;-65
2022/04/10 02:20:07;;;;;;;12.47;9.80;;;;;;;;;;760019;184;919137;-65
2022/04/10 02:22:33;;;;;;;12.63;11.13;;;;;;;;;;759340;183;920209;-65
2022/04/10 02:24:59;;;;;;;15.75;11.40;;;;;;;;;;767113;183;919144;-65
2022/04/10 02:27:24;;;;;;;11.40;8.97;;;;;;;;;;757320;183;919414;-64
2022/04/10 02:29:50;;;;;;;14.40;11.67;;;;;;;;;;750758;185;918989;-65
2022/04/10 02:32:16;;;;;;;15.52;10.73;;;;;;;;;;751704;184;919155;-63
2022/04/10 02:34:42;;;;;;;16.63;12.30;;;;;;;;;;762227;184;919108;-65
2022/04/10 02:37:08;;;;;;;14.07;11.37;;;;;;;;;;758365;183;1017935;-65
2022/04/10 02:39:34;;;;;;;16.92;11.95;;;;;;;;;;760387;183;916203;-65
2022/04/10 02:42:00;;;;;;;17.63;14.27;;;;;;;;;;767627;182;916209;-65
2022/04/10 02:44:25;;;;;;;16.50;11.77;;;;;;;;;;762387;184;915009;-65
2022/04/10 02:46:51;;;;;;;16.97;12.50;;;;;;;;;;757268;184;1018166;-65
2022/04/10 02:49:17;;;;;;;17.97;13.57;;;;;;;;;;755132;184;915873;-66
2022/04/10 02:51:44;;;;;;;17.67;13.10;;;;;;;;;;749575;184;915504;-65
2022/04/10 02:54:09;;;;;;;17.43;14.50;;;;;;;;;;758768;184;920049;-66
2022/04/10 02:56:35;;;;;;;18.43;13.83;;;;;;;;;;765012;184;914359;-65
2022/04/10 02:59:00;;;;;;;15.33;11.70;;;;;;;;;;751917;183;918915;-66
2022/04/10 03:01:26;;;;;;;18.20;13.30;;;;;;;;;;751202;184;915532;-66
2022/04/10 03:03:53;;;;;;;18.93;13.83;;;;;;;;;;751716;184;919292;-65
2022/04/10 03:06:18;;;;;;;19.50;14.20;;;;;;;;;;764631;183;918854;-66
2022/04/10 03:08:44;;;;;;;17.93;12.80;;;;;;;;;;750189;184;919340;-65
2022/04/10 03:11:10;;;;;;;24.83;13.73;;;;;;;;;;749288;184;1019543;-66
2022/04/10 03:13:36;;;;;;;20.77;14.57;;;;;;;;;;764514;183;919814;-64
2022/04/10 03:16:02;;;;;;;21.17;15.17;;;;;;;;;;765878;183;920556;-65
2022/04/10 03:18:27;;;;;;;20.50;14.77;;;;;;;;;;761239;183;1023347;-65
2022/04/10 03:20:53;;;;;;;25.17;15.93;;;;;;;;;;765198;183;921039;-66
2022/04/10 03:23:19;;;;;;;24.03;16.00;;;;;;;;;;755871;184;920275;-66
2022/04/10 03:25:45;;;;;;;25.77;18.50;;;;;;;;;;758290;184;915599;-65
2022/04/10 03:28:11;;;;;;;25.10;16.02;;;;;;;;;;757834;184;969574;-65
2022/04/10 03:30:36;;;;;;;20.40;13.93;;;;;;;;;;762474;184;918493;-65
2022/04/10 03:33:02;;;;;;;20.40;14.67;;;;;;;;;;745280;184;919262;-65
2022/04/10 03:35:28;;;;;;;22.77;15.33;;;;;;;;;;746124;185;919171;-65
2022/04/10 03:37:54;;;;;;;22.17;16.10;;;;;;;;;;761632;183;1015338;-66
2022/04/10 03:40:20;;;;;;;23.30;16.27;;;;;;;;;;763916;183;918791;-65
2022/04/10 03:42:46;;;;;;;22.97;15.30;;;;;;;;;;755645;183;921608;-65
2022/04/10 03:45:12;;;;;;;19.20;14.83;;;;;;;;;;765061;183;918692;-65
2022/04/10 03:47:38;;;;;;;22.20;15.97;;;;;;;;;;756573;184;914277;-65
2022/04/10 03:50:04;;;;;;;25.70;18.00;;;;;;;;;;753544;184;911614;-66
2022/04/10 03:52:30;;;;;;;21.40;15.18;;;;;;;;;;760716;183;912532;-65
2022/04/10 03:54:56;;;;;;;24.10;16.30;;;;;;;;;;762617;184;920228;-65
2022/04/10 03:57:22;;;;;;;24.00;15.87;;;;;;;;;;754605;183;918571;-66
2022/04/10 03:59:48;;;;;;;23.12;15.68;;;;;;;;;;749706;183;919107;-66
2022/04/10 04:02:15;;;;;;;23.27;16.20;;;;;;;;;;754738;185;919327;-66
2022/04/10 04:04:40;;;;;;;26.48;18.75;;;;;;;;;;755264;184;1019944;-65
2022/04/10 04:07:06;;;;;;;22.87;16.07;;;;;;;;;;754344;183;917796;-65
2022/04/10 04:09:32;;;;;;;27.40;15.60;;;;;;;;;;763241;184;914604;-66
2022/04/10 04:11:58;;;;;;;25.63;16.43;;;;;;;;;;766002;184;918668;-65
2022/04/10 04:14:24;;;;;;;26.70;17.47;;;;;;;;;;762428;183;921187;-65
2022/04/10 04:16:50;;;;;;;25.90;17.33;;;;;;;;;;761014;183;919507;-65
2022/04/10 04:19:16;;;;;;;22.00;15.03;;;;;;;;;;764696;183;921983;-66
2022/04/10 04:21:42;;;;;;;23.57;16.00;;;;;;;;;;760660;183;917808;-65
2022/04/10 04:24:07;;;;;;;21.95;15.20;;;;;;;;;;757717;183;919805;-66
2022/04/10 04:26:33;;;;;;;27.63;16.83;;;;;;;;;;758567;184;919065;-65
2022/04/10 04:28:59;;;;;;;21.73;17.03;;;;;;;;;;756414;184;918790;-67
2022/04/10 04:31:25;;;;;;;26.42;15.60;;;;;;;;;;747034;184;918831;-65
2022/04/10 04:33:51;;;;;;;25.50;17.00;;;;;;;;;;755168;183;918664;-65
2022/04/10 04:36:16;;;;;;;22.77;16.80;;;;;;;;;;749832;183;918201;-65
2022/04/10 04:38:42;;;;;;;23.70;16.17;;;;;;;;;;742454;184;919130;-64
2022/04/10 04:41:10;;;;;;;23.80;17.13;;;;;;;;;;763944;183;918670;-65
2022/04/10 04:43:34;;;;;;;23.75;16.92;;;;;;;;;;755976;184;919555;-66
2022/04/10 04:46:00;;;;;;;26.20;16.60;;;;;;;;;;754469;183;936813;-65
2022/04/10 04:48:26;;;;;;;28.60;19.10;;;;;;;;;;750582;183;922447;-65
2022/04/10 04:50:52;;;;;;;28.60;17.83;;;;;;;;;;761859;184;917170;-65
2022/04/10 04:53:17;;;;;;;22.63;17.93;;;;;;;;;;756470;183;918722;-64
2022/04/10 04:55:43;;;;;;;29.75;20.73;;;;;;;;;;757586;184;918428;-65
2022/04/10 04:58:09;;;;;;;25.87;17.53;;;;;;;;;;755798;183;918529;-66
2022/04/10 05:00:35;;;;;;;28.13;17.87;;;;;;;;;;756126;183;919693;-65
2022/04/10 05:03:01;;;;;;;29.40;18.43;;;;;;;;;;754036;184;1020413;-65
2022/04/10 05:05:27;;;;;;;24.20;16.80;;;;;;;;;;762321;182;914160;-65
2022/04/10 05:07:52;;;;;;;26.23;18.02;;;;;;;;;;759958;182;918975;-65
2022/04/10 05:10:18;;;;;;;29.90;19.00;;;;;;;;;;758358;182;1006364;-64
2022/04/10 05:12:44;;;;;;;32.43;19.73;;;;;;;;;;758846;182;918584;-63
2022/04/10 05:15:10;;;;;;;28.45;20.60;;;;;;;;;;763551;183;918437;-65
2022/04/10 05:17:36;;;;;;;35.87;18.57;;;;;;;;;;749260;183;919440;-65
2022/04/10 05:20:02;;;;;;;25.73;17.83;;;;;;;;;;753554;184;918542;-65
2022/04/10 05:22:28;;;;;;;28.97;19.57;;;;;;;;;;750603;183;918782;-64
2022/04/10 05:24:53;;;;;;;26.10;17.20;;;;;;;;;;754693;183;919711;-63
2022/04/10 05:27:19;;;;;;;26.33;17.20;;;;;;;;;;753012;183;918567;-63
2022/04/10 05:29:45;;;;;;;28.00;18.23;;;;;;;;;;759643;184;1020484;-61
2022/04/10 05:32:11;;;;;;;26.77;16.93;;;;;;;;;;753170;184;919219;-60
2022/04/10 05:34:37;;;;;;;23.70;18.05;;;;;;;;;;752478;184;919999;-62
2022/04/10 05:37:03;;;;;;;26.40;18.60;;;;;;;;;;759944;183;925444;-64
2022/04/10 05:39:28;;;;;;;31.77;18.37;;;;;;;;;;754182;184;918850;-62
2022/04/10 05:41:54;;;;;;;26.10;18.67;;;;;;;;;;756108;183;917828;-62
2022/04/10 05:44:20;;;;;;;24.70;18.10;;;;;;;;;;753262;183;919624;-61
2022/04/10 05:46:46;;;;;;;26.63;17.77;;;;;;;;;;760957;184;918955;-61
2022/04/10 05:49:12;;;;;;;32.23;20.43;;;;;;;;;;754371;184;919781;-60
2022/04/10 05:51:42;;;;;;;29.43;18.17;;;;;;;;;;756916;183;919542;-61
2022/04/10 05:54:07;;;;;;;25.83;16.80;;;;;;;;;;759450;185;919001;-60
2022/04/10 05:56:33;;;;;;;24.03;17.03;;;;;;;;;;749003;184;919423;-61
2022/04/10 05:58:59;;;;;;;19.98;13.95;;;;;;;;;;749074;184;920822;-60
2022/04/10 06:01:25;;;;;;;20.43;15.07;;;;;;;;;;754567;183;1020959;-60
2022/04/10 06:03:51;;;;;;;19.63;12.90;;;;;;;;;;756055;186;919693;-60
2022/04/10 06:06:18;;;;;;;17.77;12.50;;;;;;;;;;753246;181;1021710;-60
2022/04/10 06:08:42;;;;;;;16.03;12.20;;;;;;;;;;745693;186;919518;-60
2022/04/10 06:11:08;;;;;;;19.90;13.27;;;;;;;;;;756500;184;918155;-60
2022/04/10 06:13:34;;;;;;;17.83;12.57;;;;;;;;;;736242;188;918804;-61
2022/04/10 06:16:00;;;;;;;14.83;10.83;;;;;;;;;;744495;186;919850;-61
2022/04/10 06:18:26;;;;;;;13.80;10.63;;;;;;;;;;762126;183;919075;-61
2022/04/10 06:20:52;;;;;;;15.93;11.40;;;;;;;;;;753625;184;918812;-62
2022/04/10 06:23:20;;;;;;;13.18;9.93;;;;;;;;;;759320;183;919288;-60
2022/04/10 06:25:44;;;;;;;15.20;9.70;;;;;;;;;;764602;184;919713;-60
2022/04/10 06:28:10;;;;;;;13.93;9.83;;;;;;;;;;755132;184;919877;-61
2022/04/10 06:30:35;;;;;;;13.53;8.67;;;;;;;;;;757268;184;919398;-60
2022/04/10 06:33:01;;;;;;;12.97;8.20;;;;;;;;;;751382;184;919390;-60
2022/04/10 06:35:27;;;;;;;10.77;7.67;;;;;;;;;;762869;183;919210;-59
2022/04/10 06:37:53;;;;;;;9.30;5.93;;;;;;;;;;758930;184;920370;-59
2022/04/10 06:40:19;;;;;;;9.40;6.27;;;;;;;;;;758179;183;919295;-60
2022/04/10 06:42:45;;;;;;;7.13;4.87;;;;;;;;;;758878;184;713052;-60
2022/04/10 06:45:10;;;;;;;7.47;5.13;;;;;;;;;;758527;184;917846;-60
2022/04/10 06:47:36;;;;;;;9.23;5.13;;;;;;;;;;762990;184;629420;-59
2022/04/10 06:50:02;;;;;;;8.10;4.80;;;;;;;;;;765444;180;628261;-60
2022/04/10 06:52:28;;;;;;;12.53;5.60;;;;;;;;;;764992;183;907433;-60
2022/04/10 06:54:54;;;;;;;5.00;2.90;;;;;;;;;;758581;183;626370;-61
2022/04/10 06:57:20;;;;;;;3.43;2.63;;;;;;;;;;763205;183;626165;-61
2022/04/10 06:59:45;;;;;;;6.80;4.93;;;;;;;;;;764629;183;617194;-61
2022/04/10 07:02:11;;;;;;;5.20;2.70;;;;;;;;;;759870;183;619570;-60
2022/04/10 07:04:37;;;;;;;4.83;2.47;;;;;;;;;;761215;183;694306;-59
2022/04/10 07:07:03;;;;;;;5.03;3.30;;;;;;;;;;761765;183;617972;-60
2022/04/10 07:09:29;;;;;;;5.93;2.53;;;;;;;;;;761956;184;646590;-60
2022/04/10 07:11:55;;;;;;;5.03;1.80;;;;;;;;;;760429;184;619421;-59
2022/04/10 07:14:21;;;;;;;3.13;2.30;;;;;;;;;;761533;184;633908;-60
2022/04/10 07:16:46;;;;;;;5.10;1.77;;;;;;;;;;761903;184;642867;-60
2022/04/10 07:19:12;;;;;;;2.40;1.63;;;;;;;;;;753542;184;914009;-59
2022/04/10 07:24:10;;;;;;;2.73;1.70;;;;;;;;;;763467;183;924974;-60
2022/04/10 07:26:35;;;;;;;2.50;1.47;;;;;;;;;;756489;183;918310;-60
2022/04/10 07:29:01;;;;;;;7.87;2.47;;;;;;;;;;755835;182;918859;-59
2022/04/10 07:31:27;;;;;;;3.50;1.60;;;;;;;;;;762497;183;919546;-60
2022/04/10 07:33:53;;;;;;;3.90;1.90;;;;;;;;;;754365;183;920648;-60
2022/04/10 07:36:20;;;;;;;2.97;1.63;;;;;;;;;;755218;182;918407;-60
2022/04/10 07:38:45;;;;;;;6.57;1.65;;;;;;;;;;759315;184;921871;-60
2022/04/10 07:41:11;;;;;;;5.87;1.60;;;;;;;;;;751304;184;1120509;-60
2022/04/10 07:43:37;;;;;;;4.03;1.80;;;;;;;;;;750963;183;918978;-61
2022/04/10 07:48:34;;;;;;;2.00;1.30;;;;;;;;;;762950;183;919990;-60
2022/04/10 07:51:00;;;;;;;2.13;0.90;;;;;;;;;;751811;184;911595;-61
2022/04/10 07:53:26;;;;;;;3.10;1.30;;;;;;;;;;761113;184;911054;-60
2022/04/10 07:55:52;;;;;;;3.13;1.20;;;;;;;;;;766598;183;910899;-60
2022/04/10 07:58:18;;;;;;;2.67;1.10;;;;;;;;;;759883;183;919763;-61
2022/04/10 08:00:44;;;;;;;2.23;1.20;;;;;;;;;;759698;183;915962;-60
2022/04/10 08:03:10;;;;;;;2.30;1.10;;;;;;;;;;760464;183;915969;-59
2022/04/10 08:05:35;;;;;;;2.87;1.73;;;;;;;;;;763751;183;919234;-60
2022/04/10 08:08:01;;;;;;;3.33;1.60;;;;;;;;;;748751;184;908214;-61
2022/04/10 08:10:28;;;;;;;2.93;1.30;;;;;;;;;;760107;184;919149;-61
2022/04/10 08:12:53;;;;;;;2.78;1.60;;;;;;;;;;762790;184;920183;-61
2022/04/10 08:15:19;;;;;;;4.00;1.23;;;;;;;;;;760359;183;919028;-61
2022/04/10 08:17:45;;;;;;;2.70;1.20;;;;;;;;;;760448;183;919915;-60
2022/04/10 08:20:12;;;;;;;3.87;2.07;;;;;;;;;;752345;186;917317;-62
2022/04/10 08:22:36;;;;;;;7.03;3.03;;;;;;;;;;756574;184;919505;-60
2022/04/10 08:25:03;;;;;;;6.55;2.20;;;;;;;;;;757443;184;920198;-60
2022/04/10 08:27:29;;;;;;;3.70;2.37;;;;;;;;;;754345;184;919802;-60
2022/04/10 08:29:55;;;;;;;3.60;2.73;;;;;;;;;;758031;184;919520;-60
2022/04/10 08:32:22;;;;;;;3.27;2.30;;;;;;;;;;759652;184;918761;-61
2022/04/10 08:34:48;;;;;;;4.23;2.63;;;;;;;;;;751744;184;917938;-60
2022/04/10 08:37:14;;;;;;;6.47;2.60;;;;;;;;;;762894;183;919782;-60
2022/04/10 08:39:40;;;;;;;4.03;2.57;;;;;;;;;;759204;184;919054;-62
2022/04/10 08:42:06;;;;;;;5.43;2.90;;;;;;;;;;752987;184;919253;-61
2022/04/10 08:44:32;;;;;;;3.30;2.60;;;;;;;;;;762047;184;919907;-60
2022/04/10 08:46:58;;;;;;;3.83;2.70;;;;;;;;;;758095;182;922439;-61
2022/04/10 08:49:25;;;;;;;5.47;2.80;;;;;;;;;;755952;183;918917;-61
2022/04/10 08:51:50;;;;;;;3.67;2.12;;;;;;;;;;757940;183;918877;-61
2022/04/10 08:54:16;;;;;;;4.93;3.10;;;;;;;;;;766114;183;919241;-61
2022/04/10 08:56:42;;;;;;;3.90;2.80;;;;;;;;;;754544;184;916688;-61
2022/04/10 08:59:08;;;;;;;3.45;2.67;;;;;;;;;;753129;184;917500;-61
2022/04/10 09:01:34;;;;;;;10.40;2.80;;;;;;;;;;759731;184;918042;-61
2022/04/10 09:04:00;;;;;;;5.55;4.05;;;;;;;;;;759292;183;917151;-61
2022/04/10 09:06:26;;;;;;;7.85;7.05;;;;;;;;;;756674;184;920175;-60
2022/04/10 09:08:52;;;;;;;5.17;3.07;;;;;;;;;;759793;184;918937;-60
2022/04/10 09:11:18;;;;;;;3.90;2.83;;;;;;;;;;750538;183;918558;-60
2022/04/10 09:13:47;;;;;;;9.93;4.97;;;;;;;;;;755876;183;1020717;-60
2022/04/10 09:16:14;;;;;;;4.90;2.80;;;;;;;;;;755472;184;921685;-62
2022/04/10 09:18:46;;;;;;;4.55;3.28;;;;;;;;;;758712;184;918647;-60
2022/04/10 09:21:11;;;;;;;5.10;3.47;;;;;;;;;;740798;188;920076;-61
2022/04/10 09:23:36;;;;;;;2.90;2.30;;;;;;;;;;747177;185;920137;-60
2022/04/10 09:26:02;;;;;;;7.90;4.63;;;;;;;;;;748435;184;920392;-60
2022/04/10 09:28:34;;;;;;;5.37;3.47;;;;;;;;;;746397;188;1124077;-60
2022/04/10 09:31:00;;;;;;;6.53;3.40;;;;;;;;;;733237;190;909270;-60
2022/04/10 09:33:26;;;;;;;17.93;11.23;;;;;;;;;;758272;183;918718;-60
2022/04/10 09:35:51;;;;;;;7.23;5.87;;;;;;;;;;762521;184;919427;-61
2022/04/10 09:38:17;;;;;;;12.27;9.50;;;;;;;;;;759867;183;919408;-60
2022/04/10 09:40:43;;;;;;;12.10;5.83;;;;;;;;;;759880;184;918334;-60
2022/04/10 09:43:10;;;;;;;11.20;7.68;;;;;;;;;;759300;183;919140;-61
2022/04/10 09:45:38;;;;;;;6.07;4.10;;;;;;;;;;765080;183;919512;-61
2022/04/10 09:48:08;;;;;;;5.00;3.60;;;;;;;;;;757485;183;919162;-61
2022/04/10 09:50:34;;;;;;;5.27;3.97;;;;;;;;;;751577;184;918687;-61
2022/04/10 09:53:00;;;;;;;4.40;3.57;;;;;;;;;;762338;184;919854;-62
2022/04/10 09:55:29;;;;;;;5.07;3.40;;;;;;;;;;742906;185;941258;-60
2022/04/10 09:57:55;;;;;;;7.47;3.27;;;;;;;;;;765090;182;920087;-61
2022/04/10 10:00:21;;;;;;;5.80;4.40;;;;;;;;;;756574;183;1123932;-61
2022/04/10 10:02:47;;;;;;;6.30;2.80;;;;;;;;;;764903;182;919662;-64
2022/04/10 10:05:13;;;;;;;5.77;3.70;;;;;;;;;;756145;183;920024;-62
2022/04/10 10:07:39;;;;;;;6.20;4.15;;;;;;;;;;752240;183;919151;-61
2022/04/10 10:10:05;;;;;;;3.93;2.93;;;;;;;;;;763861;184;920003;-61
2022/04/10 10:12:31;;;;;;;3.80;3.00;;;;;;;;;;751783;183;919422;-61
2022/04/10 10:14:56;;;;;;;4.13;3.53;;;;;;;;;;749187;184;922363;-61
2022/04/10 10:17:22;;;;;;;7.43;3.93;;;;;;;;;;759341;183;919161;-61
2022/04/10 10:19:48;;;;;;;5.27;3.47;;;;;;;;;;744293;186;920510;-61
2022/04/10 10:22:15;;;;;;;3.63;3.07;;;;;;;;;;749360;184;919915;-61
2022/04/10 10:24:46;;;;;;;4.93;3.20;;;;;;;;;;746664;185;918750;-61
2022/04/10 10:27:12;;;;;;;5.32;2.92;;;;;;;;;;747813;187;918908;-61
2022/04/10 10:29:54;;;;;;;3.80;2.20;;;;;;;;;;725225;191;917466;-61
2022/04/10 10:32:22;;;;;;;7.97;3.30;;;;;;;;;;727690;191;1020270;-62
2022/04/10 10:34:48;;;;;;;4.60;2.77;;;;;;;;;;760162;183;918578;-62
2022/04/10 10:37:14;;;;;;;2.70;2.10;;;;;;;;;;761290;183;918915;-61
2022/04/10 10:39:44;;;;;;;3.10;2.67;;;;;;;;;;754728;183;945362;-61
2022/04/10 10:42:10;;;;;;;4.40;2.90;;;;;;;;;;752470;184;919154;-62
2022/04/10 10:44:36;;;;;;;5.97;2.80;;;;;;;;;;753774;183;917621;-62
2022/04/10 10:47:02;;;;;;;3.80;2.17;;;;;;;;;;758519;184;916135;-62
2022/04/10 10:49:29;;;;;;;4.05;2.75;;;;;;;;;;753274;184;918913;-62
2022/04/10 10:51:54;;;;;;;4.30;2.23;;;;;;;;;;756445;183;916299;-61
2022/04/10 10:54:21;;;;;;;15.43;9.83;;;;;;;;;;756274;184;919265;-61
2022/04/10 10:56:46;;;;;;;9.73;7.23;;;;;;;;;;754450;183;911169;-61
2022/04/10 10:59:32;;;;;;;8.80;5.20;;;;;;;;;;754874;183;916156;-61
2022/04/10 11:02:03;;;;;;;3.70;2.77;;;;;;;;;;756514;183;900751;-62
2022/04/10 11:04:32;;;;;;;7.40;4.87;;;;;;;;;;757847;183;646064;-63
2022/04/10 11:07:03;;;;;;;3.87;2.80;;;;;;;;;;760653;183;919409;-63
2022/04/10 11:09:29;;;;;;;4.70;2.50;;;;;;;;;;767180;183;618279;-62
2022/04/10 11:11:55;;;;;;;5.70;2.53;;;;;;;;;;758067;182;918791;-62
2022/04/10 11:14:31;;;;;;;4.40;2.43;;;;;;;;;;752095;183;919630;-63
2022/04/10 11:17:03;;;;;;;3.63;2.60;;;;;;;;;;759746;183;919083;-62
2022/04/10 11:19:28;;;;;;;8.40;3.00;;;;;;;;;;753149;187;919003;-62
2022/04/10 11:21:54;;;;;;;4.57;2.50;;;;;;;;;;753776;183;920136;-61
2022/04/10 11:24:21;;;;;;;3.40;2.57;;;;;;;;;;747278;186;919151;-62
2022/04/10 11:26:48;;;;;;;9.30;2.03;;;;;;;;;;738006;190;918996;-62
2022/04/10 11:29:14;;;;;;;2.77;1.90;;;;;;;;;;748946;184;909663;-61
2022/04/10 11:31:40;;;;;;;2.87;1.80;;;;;;;;;;750374;184;920098;-63
2022/04/10 11:34:10;;;;;;;3.23;1.70;;;;;;;;;;756515;183;918612;-62
2022/04/10 11:36:41;;;;;;;2.93;1.90;;;;;;;;;;755393;184;614569;-62
2022/04/10 11:39:08;;;;;;;3.50;1.90;;;;;;;;;;742782;184;941919;-62
2022/04/10 11:41:34;;;;;;;6.90;1.20;;;;;;;;;;750702;184;918875;-62
2022/04/10 11:44:00;;;;;;;5.90;1.57;;;;;;;;;;752883;184;1018573;-63
2022/04/10 11:46:26;;;;;;;2.93;1.70;;;;;;;;;;761780;183;919302;-62
2022/04/10 11:48:51;;;;;;;2.70;1.00;;;;;;;;;;760564;183;635871;-62
2022/04/10 11:51:17;;;;;;;7.03;2.40;;;;;;;;;;756058;183;621725;-63
2022/04/10 11:53:43;;;;;;;3.43;1.77;;;;;;;;;;761872;184;918402;-62
2022/04/10 11:56:09;;;;;;;3.43;2.00;;;;;;;;;;756573;183;918026;-62
2022/04/10 11:58:37;;;;;;;4.12;2.20;;;;;;;;;;757206;184;918055;-61
2022/04/10 12:01:02;;;;;;;9.00;3.37;;;;;;;;;;762925;184;917668;-62
2022/04/10 12:03:29;;;;;;;2.93;1.80;;;;;;;;;;756198;183;920944;-62
2022/04/10 12:05:54;;;;;;;3.60;1.87;;;;;;;;;;753484;183;918417;-62
2022/04/10 12:08:20;;;;;;;4.00;1.90;;;;;;;;;;743618;184;921140;-63
2022/04/10 12:10:55;;;;;;;3.80;1.70;;;;;;;;;;755486;184;916429;-63
2022/04/10 12:13:21;;;;;;;2.87;1.50;;;;;;;;;;758751;183;916496;-62
2022/04/10 12:15:47;;;;;;;3.58;1.77;;;;;;;;;;758784;182;916384;-62
2022/04/10 12:18:13;;;;;;;3.37;1.95;;;;;;;;;;759347;183;920865;-61
2022/04/10 12:20:39;;;;;;;3.13;2.00;;;;;;;;;;759951;182;897855;-62
2022/04/10 12:23:05;;;;;;;4.50;1.70;;;;;;;;;;755148;182;916737;-62
2022/04/10 12:25:31;;;;;;;5.37;2.58;;;;;;;;;;743940;184;2144140;-62
2022/04/10 12:27:57;;;;;;;6.00;2.60;;;;;;;;;;756615;184;816238;-63
2022/04/10 12:30:24;;;;;;;4.97;1.50;;;;;;;;;;745913;185;919738;-61
2022/04/10 12:32:50;;;;;;;3.30;1.90;;;;;;;;;;750264;184;919686;-62
2022/04/10 12:35:16;;;;;;;2.70;1.80;;;;;;;;;;755956;185;915743;-63
2022/04/10 12:37:44;;;;;;;7.73;1.70;;;;;;;;;;751953;184;918959;-62
2022/04/10 12:40:10;;;;;;;3.67;2.13;;;;;;;;;;755600;183;918956;-63
2022/04/10 12:42:36;;;;;;;4.20;2.07;;;;;;;;;;751785;184;919047;-62
2022/04/10 12:45:03;;;;;;;3.57;1.87;;;;;;;;;;760676;183;920038;-62
2022/04/10 12:47:34;;;;;;;2.83;1.83;;;;;;;;;;750813;184;918859;-63
2022/04/10 12:50:04;;;;;;;3.87;2.20;;;;;;;;;;756244;183;919514;-62
2022/04/10 12:52:29;;;;;;;3.73;2.30;;;;;;;;;;754529;184;919107;-62
2022/04/10 12:54:55;;;;;;;3.00;1.30;;;;;;;;;;753001;184;918825;-63
2022/04/10 12:57:25;;;;;;;3.60;1.90;;;;;;;;;;760246;183;919370;-62
2022/04/10 12:59:51;;;;;;;3.70;2.20;;;;;;;;;;754394;183;1130469;-62
2022/04/10 13:02:21;;;;;;;4.30;1.75;;;;;;;;;;758895;183;918770;-63
2022/04/10 13:04:52;;;;;;;2.50;1.70;;;;;;;;;;754330;184;918980;-63
2022/04/10 13:07:18;;;;;;;7.03;2.77;;;;;;;;;;752971;184;919787;-62
2022/04/10 13:09:44;;;;;;;2.80;1.90;;;;;;;;;;753358;183;917386;-64
2022/04/10 13:12:10;;;;;;;2.87;1.40;;;;;;;;;;758844;183;918036;-63
2022/04/10 13:14:35;;;;;;;4.23;2.63;;;;;;;;;;751977;183;918034;-64
2022/04/10 13:17:02;;;;;;;6.03;1.77;;;;;;;;;;755427;183;919462;-62
2022/04/10 13:19:30;;;;;;;3.13;1.60;;;;;;;;;;761924;183;910839;-63
2022/04/10 13:21:54;;;;;;;3.40;1.80;;;;;;;;;;745358;188;619008;-63
2022/04/10 13:24:20;;;;;;;4.57;1.90;;;;;;;;;;752096;185;919243;-63
2022/04/10 13:26:46;;;;;;;5.80;2.03;;;;;;;;;;755016;183;698100;-62
2022/04/10 13:29:12;;;;;;;4.03;1.43;;;;;;;;;;738959;187;630177;-63
2022/04/10 13:31:37;;;;;;;3.47;1.50;;;;;;;;;;756756;184;620156;-62
2022/04/10 13:34:05;;;;;;;5.25;1.87;;;;;;;;;;758148;184;1019821;-63
2022/04/10 13:36:31;;;;;;;3.57;1.80;;;;;;;;;;757489;183;918438;-64
2022/04/10 13:38:56;;;;;;;5.70;1.80;;;;;;;;;;756031;183;919605;-63
2022/04/10 13:41:22;;;;;;;6.10;1.70;;;;;;;;;;752745;183;922518;-62
2022/04/10 13:43:48;;;;;;;2.60;1.40;;;;;;;;;;761586;183;919936;-62
2022/04/10 13:46:14;;;;;;;3.23;1.50;;;;;;;;;;753669;183;957940;-63
2022/04/10 13:48:41;;;;;;;2.40;1.40;;;;;;;;;;753296;183;921818;-62
2022/04/10 13:51:06;;;;;;;5.60;2.73;;;;;;;;;;754796;183;904643;-64
2022/04/10 13:53:31;;;;;;;3.13;1.70;;;;;;;;;;759664;183;926543;-63
2022/04/10 13:55:57;;;;;;;4.33;3.07;;;;;;;;;;752780;184;925034;-62
2022/04/10 13:58:23;;;;;;;5.67;2.60;;;;;;;;;;758548;183;919297;-62
2022/04/10 14:00:49;;;;;;;3.10;1.80;;;;;;;;;;763098;184;919207;-64
2022/04/10 14:03:15;;;;;;;2.67;1.40;;;;;;;;;;762286;184;919439;-62
2022/04/10 14:05:41;;;;;;;3.77;1.93;;;;;;;;;;753654;184;1112044;-63
2022/04/10 14:08:07;;;;;;;3.13;1.97;;;;;;;;;;761988;183;918857;-63
2022/04/10 14:10:32;;;;;;;3.97;1.83;;;;;;;;;;743203;187;920046;-63
2022/04/10 14:12:58;;;;;;;4.70;1.98;;;;;;;;;;741378;187;918889;-63
2022/04/10 14:15:24;;;;;;;4.23;1.70;;;;;;;;;;744350;187;918514;-63
2022/04/10 14:17:55;;;;;;;5.03;1.80;;;;;;;;;;757777;183;918801;-63